Detall de PIREP

Printer-friendly versionPDF version

[2013/10/04 06:44:00]
Flight IATA:CT3219
Pilot Number:012
Company ICAO:CAT
Aircraft Type:B763/F
PAX:263
Departing Airport: EFHK
Destination Airport: LEPA
Alternate Airport:LEBL
Online: VATSIM
Route:ELMUT/M080F360 M6 PEVEN N624 KOLJA N746 GORPI Z80 TILAV L87 PESEL UL87 ANELA UN869 TEDGO/M080F370 UN869 MILPA UN852 VERSO UL129 LUNIK
Flight Level:F370
No Slew and time accel
No pause
Crash detect
Detect pilot in Cockpit between each 30 and 45 minutes
06:44 Zero fuel Weight: 266367 Lbs, Fuel Weight: 61816 Lbs
06:44 VATSIM:EFHK 040620Z 22004KT 9999 BKN029 05/05 Q1028 NOSIG
06:44 VATSIM:LEPA 040630Z 04008KT 9999 FEW015 24/22 Q1013 NOSIG
06:44 VOICE CATALONIAN
06:59 Parking Brakes off
07:04 Take-off
07:04 Take off Weight: 326209 Lbs
07:04 Wind: 211º @ 004 Knots Heading: 227º
07:04 POS N60º 19´ 17´´ E024º 55´ 20´´
07:04 Flaps:2 at 179 Knots
07:04 Gear Up: 182 Knots
07:05 Flaps:1 at 194 Knots
07:05 Flaps:0 at 207 Knots
07:19 Wind:324º@029 Knots Heading: 249º Ground Speed: 449 Knots Altitude 35239 ft
07:34 Wind:347º@043 Knots Heading: 217º Ground Speed: 486 Knots Altitude 36463 ft
07:49 Wind:346º@043 Knots Heading: 216º Ground Speed: 491 Knots Altitude 36473 ft
08:04 Wind:337º@039 Knots Heading: 215º Ground Speed: 484 Knots Altitude 36509 ft
08:19 Wind:336º@043 Knots Heading: 221º Ground Speed: 473 Knots Altitude 36397 ft
08:34 Wind:282º@025 Knots Heading: 207º Ground Speed: 450 Knots Altitude 36302 ft
08:49 Wind:270º@039 Knots Heading: 212º Ground Speed: 436 Knots Altitude 36295 ft
09:04 Wind:247º@049 Knots Heading: 232º Ground Speed: 417 Knots Altitude 36210 ft
09:05 TOC
09:05 Fuel Weight: 34860 Lb
09:19 Wind:243º@045 Knots Heading: 211º Ground Speed: 428 Knots Altitude 37214 ft
09:34 Wind:241º@048 Knots Heading: 185º Ground Speed: 440 Knots Altitude 37234 ft
09:49 Wind:245º@056 Knots Heading: 197º Ground Speed: 433 Knots Altitude 37224 ft
10:04 Wind:243º@060 Knots Heading: 213º Ground Speed: 419 Knots Altitude 37181 ft
10:19 Wind:237º@064 Knots Heading: 195º Ground Speed: 425 Knots Altitude 37122 ft
10:19 TOD
10:19 Fuel Weight: 22841 Lb
10:34 Wind:217º@018 Knots Heading: 179º Ground Speed: 264 Knots Altitude 8005 ft
10:38 Flaps:1 at 217 Knots
10:39 Flaps:2 at 213 Knots
10:39 Flaps:3 at 197 Knots
10:39 Gear Down: 193 Knots
10:40 Flaps:4 at 157 Knots
10:40 Flaps:5 at 150 Knots
10:41 Flaps:6 at 144 Knots
10:44 TouchDown:Rate -146 ft/min Speed: 131 Knots
10:45 VATSIM:LEPA 041030Z 18005KT 140V220 9999 FEW018 29/22 Q1014 NOSIG
10:45 Land
10:45 Wind:060º@004 Knots
10:45 Heading: 233º
10:45 Flight Duration: 03:41
10:45 Landing Weight: 286508 Lbs
10:45 POS N39º 32´ 57´´ E002º 44´ 54´´
10:47 Parking brakes on
10:47 Block to Block Duration: 03:48
10:47 Final Fuel: 19675 Lbls
10:47 Spent Fuel: 42140 Lbls
10:47 Flight Length: 1559 NM
10:47 TOD Land Length: 128 NM

Exportar CSV

Powered by Drupal - Modified by Danger4k